createdAt,value
2022-12-15T00:00:23.845Z,90.40
2022-12-15T00:03:30.572Z,88.20
2022-12-15T00:06:19.550Z,89.60
2022-12-15T00:09:11.157Z,89.20
2022-12-15T00:12:00.385Z,90.00
2022-12-15T00:14:46.719Z,100.00
2022-12-15T00:17:33.254Z,90.60
2022-12-15T00:20:19.995Z,88.50
2022-12-15T00:23:09.061Z,93.10
2022-12-15T00:25:55.574Z,96.60
2022-12-15T00:28:41.627Z,100.20
2022-12-15T00:31:28.028Z,106.80
2022-12-15T00:34:14.442Z,109.70
2022-12-15T00:37:01.135Z,102.00
2022-12-15T00:39:28.959Z,98.40
2022-12-15T00:41:56.688Z,103.20
2022-12-15T00:44:25.049Z,108.20
2022-12-15T00:46:55.756Z,108.80
2022-12-15T00:49:44.360Z,108.20
2022-12-15T00:52:32.169Z,108.50
2022-12-15T00:55:19.016Z,107.80
2022-12-15T00:58:05.601Z,105.40
2022-12-15T01:00:52.594Z,94.80
2022-12-15T01:03:43.186Z,73.10
2022-12-15T01:06:34.250Z,65.40
2022-12-15T01:09:21.915Z,68.20
2022-12-15T01:12:08.235Z,67.80
2022-12-15T01:14:54.702Z,81.50
2022-12-15T01:17:40.956Z,88.00
2022-12-15T01:20:18.855Z,97.80
2022-12-15T01:22:54.297Z,92.60
2022-12-15T01:25:25.586Z,99.10
2022-12-15T01:27:55.249Z,96.50
2022-12-15T01:30:26.345Z,106.90
2022-12-15T01:32:56.465Z,113.50
2022-12-15T01:35:26.088Z,112.20
2022-12-15T01:37:53.821Z,116.40
2022-12-15T01:40:40.641Z,117.10
2022-12-15T01:43:21.073Z,111.70
2022-12-15T01:46:09.949Z,114.30
2022-12-15T01:49:00.791Z,112.10
2022-12-15T01:51:43.026Z,102.00
2022-12-15T01:54:20.149Z,99.40
2022-12-15T01:56:55.922Z,86.70
2022-12-15T01:59:32.890Z,81.50
2022-12-15T02:02:01.120Z,77.40
2022-12-15T02:04:29.168Z,73.80
2022-12-15T02:06:56.956Z,73.40
2022-12-15T02:09:26.816Z,78.00
2022-12-15T02:12:48.750Z,82.50
2022-12-15T02:16:25.655Z,69.60
2022-12-15T02:19:31.108Z,68.10
2022-12-15T02:22:25.980Z,69.50
2022-12-15T02:25:22.339Z,71.10
2022-12-15T02:28:04.852Z,74.40
2022-12-15T02:31:10.605Z,69.40
2022-12-15T02:33:46.903Z,70.40
2022-12-15T02:36:25.931Z,67.80
2022-12-15T02:38:53.733Z,60.00
2022-12-15T02:41:36.828Z,64.80
2022-12-15T02:44:16.260Z,67.00
2022-12-15T02:47:13.756Z,60.70
2022-12-15T02:50:06.833Z,59.80
2022-12-15T02:55:58.950Z,57.20
2022-12-15T02:59:11.318Z,59.50
2022-12-15T03:01:54.397Z,52.70
2022-12-15T03:04:23.009Z,61.50
2022-12-15T03:07:00.896Z,59.90
2022-12-15T03:09:31.898Z,58.40
2022-12-15T03:11:59.971Z,61.30
2022-12-15T03:14:28.233Z,62.80
2022-12-15T03:16:56.583Z,61.00
2022-12-15T03:19:24.558Z,62.20
2022-12-15T03:21:52.972Z,64.00
2022-12-15T03:24:20.784Z,56.10
2022-12-15T03:26:51.921Z,59.30
2022-12-15T03:29:20.020Z,61.40
2022-12-15T03:31:49.884Z,61.30
2022-12-15T03:34:18.351Z,61.20
2022-12-15T03:36:46.548Z,67.20
2022-12-15T03:39:14.444Z,67.80
2022-12-15T03:41:42.580Z,60.00
2022-12-15T03:44:10.402Z,59.40
2022-12-15T03:46:38.244Z,57.90
2022-12-15T03:49:06.295Z,55.30
2022-12-15T03:51:34.314Z,62.70
2022-12-15T03:54:02.095Z,60.10
2022-12-15T03:56:29.895Z,58.60
2022-12-15T03:58:57.856Z,60.60
2022-12-15T04:01:31.379Z,59.70
2022-12-15T04:04:01.360Z,59.60
2022-12-15T04:06:30.483Z,58.90
2022-12-15T04:08:58.333Z,57.10
2022-12-15T04:11:26.231Z,53.50
2022-12-15T04:13:54.154Z,53.90
2022-12-15T04:16:22.022Z,51.30
2022-12-15T04:19:13.026Z,61.00
2022-12-15T04:21:40.858Z,61.10
2022-12-15T04:24:27.368Z,60.20
2022-12-15T04:27:13.914Z,58.60
2022-12-15T04:30:00.387Z,62.40
2022-12-15T04:32:49.942Z,57.90
2022-12-15T04:35:36.474Z,62.80
2022-12-15T04:38:22.898Z,59.10
2022-12-15T04:41:09.539Z,73.00
2022-12-15T04:43:55.846Z,71.00
2022-12-15T04:46:42.532Z,66.20
2022-12-15T04:49:28.566Z,65.20
2022-12-15T04:52:16.543Z,77.10
2022-12-15T04:55:03.309Z,91.20
2022-12-15T04:57:49.528Z,109.40
2022-12-15T05:00:36.171Z,215.00
2022-12-15T05:03:27.362Z,150.10
2022-12-15T05:06:13.968Z,122.90
2022-12-15T05:09:00.477Z,121.90
2022-12-15T05:11:47.201Z,103.10
2022-12-15T05:14:33.590Z,90.30
2022-12-15T05:17:19.646Z,72.50
2022-12-15T05:20:05.927Z,74.10
2022-12-15T05:22:52.765Z,158.10
2022-12-15T05:25:39.043Z,69.20
2022-12-15T05:28:25.807Z,54.10
2022-12-15T05:31:12.040Z,54.60
2022-12-15T05:33:39.942Z,52.10
2022-12-15T05:36:08.289Z,60.40
2022-12-15T05:38:36.067Z,59.50
2022-12-15T05:41:03.955Z,58.40
2022-12-15T05:43:31.955Z,57.10
2022-12-15T05:46:04.598Z,57.00
2022-12-15T05:48:32.468Z,54.90
2022-12-15T05:51:08.317Z,58.60
2022-12-15T05:53:41.265Z,57.70
2022-12-15T05:56:14.410Z,57.70
2022-12-15T05:58:45.471Z,57.90
2022-12-15T06:01:17.373Z,60.40
2022-12-15T06:03:45.890Z,55.10
2022-12-15T06:06:14.062Z,54.70
2022-12-15T06:08:43.409Z,57.90
2022-12-15T06:11:17.159Z,55.10
2022-12-15T06:13:45.306Z,55.00
2022-12-15T06:16:19.779Z,57.20
2022-12-15T06:18:51.212Z,58.10
2022-12-15T06:21:23.710Z,59.60
2022-12-15T06:23:52.503Z,60.50
2022-12-15T06:26:25.720Z,61.80
2022-12-15T06:28:57.056Z,62.90
2022-12-15T06:31:26.818Z,64.70
2022-12-15T06:34:01.301Z,48.60
2022-12-15T06:36:31.043Z,67.30
2022-12-15T06:39:01.036Z,66.60
2022-12-15T06:41:32.303Z,67.70
2022-12-15T06:44:01.073Z,61.30
2022-12-15T06:46:31.573Z,62.90
2022-12-15T06:48:59.764Z,66.10
2022-12-15T06:51:28.111Z,70.10
2022-12-15T06:53:56.455Z,70.10
2022-12-15T06:56:34.819Z,73.00
2022-12-15T06:59:05.183Z,77.00
2022-12-15T07:01:33.775Z,72.50
2022-12-15T07:04:03.215Z,78.50
2022-12-15T07:06:36.895Z,79.50
2022-12-15T07:09:13.689Z,87.00
2022-12-15T07:11:41.683Z,108.60
2022-12-15T07:14:10.263Z,117.90
2022-12-15T07:16:38.225Z,134.60
2022-12-15T07:19:06.207Z,115.00
2022-12-15T07:21:34.187Z,105.40
2022-12-15T07:24:02.754Z,89.00
2022-12-15T07:26:31.025Z,83.70
2022-12-15T07:28:58.822Z,87.30
2022-12-15T07:31:27.210Z,77.40
2022-12-15T07:33:55.213Z,75.40
2022-12-15T07:36:23.141Z,78.90
2022-12-15T07:38:51.888Z,84.30
2022-12-15T07:41:20.486Z,83.40
2022-12-15T07:43:48.778Z,84.00
2022-12-15T07:46:17.829Z,93.60
2022-12-15T07:48:50.186Z,92.00
2022-12-15T07:51:20.864Z,89.10
2022-12-15T07:53:50.842Z,89.80
2022-12-15T07:56:20.089Z,87.30
2022-12-15T07:58:48.489Z,88.20
2022-12-15T08:01:16.691Z,86.60
2022-12-15T08:03:45.875Z,87.40
2022-12-15T08:06:15.277Z,83.10
2022-12-15T08:08:44.938Z,82.50
2022-12-15T08:11:21.750Z,79.20
2022-12-15T08:14:02.710Z,77.50
2022-12-15T08:16:32.078Z,74.90
2022-12-15T08:19:00.072Z,72.70
2022-12-15T08:21:27.895Z,76.20
2022-12-15T08:23:55.748Z,74.20
2022-12-15T08:26:28.384Z,79.40
2022-12-15T08:29:32.132Z,80.50
2022-12-15T08:31:51.979Z,79.80
2022-12-15T08:34:20.683Z,82.20
2022-12-15T08:36:48.512Z,81.90
2022-12-15T08:39:16.575Z,82.70
2022-12-15T08:41:44.769Z,79.40
2022-12-15T08:44:12.697Z,76.20
2022-12-15T08:46:40.419Z,78.30
2022-12-15T08:49:08.784Z,82.70
2022-12-15T08:51:36.658Z,79.60
2022-12-15T08:54:04.614Z,81.90
2022-12-15T08:56:32.852Z,79.30
2022-12-15T08:59:02.655Z,78.10
2022-12-15T09:01:32.649Z,75.40
2022-12-15T09:04:01.501Z,75.50
2022-12-15T09:06:32.607Z,74.40
2022-12-15T09:09:07.342Z,78.60
2022-12-15T09:11:35.277Z,79.00
2022-12-15T09:14:03.635Z,77.20
2022-12-15T09:16:31.677Z,74.40
2022-12-15T09:19:00.321Z,77.70
2022-12-15T09:21:30.406Z,83.40
2022-12-15T09:24:01.902Z,78.90
2022-12-15T09:26:32.791Z,75.60
2022-12-15T09:29:02.133Z,76.10
2022-12-15T09:31:34.067Z,79.10
2022-12-15T09:34:02.388Z,80.40
2022-12-15T09:36:32.771Z,82.20
2022-12-15T09:39:02.731Z,79.70
2022-12-15T09:41:33.373Z,79.90
2022-12-15T09:44:13.972Z,74.30
2022-12-15T09:47:29.889Z,74.70
2022-12-15T09:50:04.907Z,75.20
2022-12-15T09:52:48.721Z,77.70
2022-12-15T09:55:23.845Z,78.20
2022-12-15T09:58:35.539Z,80.50
2022-12-15T10:01:30.994Z,73.50
2022-12-15T10:04:38.167Z,75.20
2022-12-15T10:07:32.205Z,79.10
2022-12-15T10:10:01.589Z,78.40
2022-12-15T10:12:33.243Z,78.70
2022-12-15T10:15:21.063Z,78.10
2022-12-15T10:18:21.698Z,70.00
2022-12-15T10:20:53.267Z,73.30
2022-12-15T10:23:21.190Z,73.70
2022-12-15T10:26:01.528Z,77.10
2022-12-15T10:29:02.159Z,74.70
2022-12-15T10:31:54.755Z,75.20
2022-12-15T10:34:31.392Z,73.00
2022-12-15T10:36:59.984Z,67.50
2022-12-15T10:39:46.010Z,72.10
2022-12-15T10:42:25.287Z,72.70
2022-12-15T10:44:58.572Z,73.10
2022-12-15T10:47:32.168Z,68.30
2022-12-15T10:53:55.310Z,63.00
2022-12-15T10:56:33.165Z,66.60
2022-12-15T10:59:35.396Z,70.60
2022-12-15T11:02:24.435Z,66.60
2022-12-15T11:05:16.828Z,64.60
2022-12-15T11:07:55.388Z,61.10
2022-12-15T11:10:51.913Z,59.40
2022-12-15T11:13:22.970Z,59.20
2022-12-15T11:15:53.363Z,60.60
2022-12-15T11:18:32.041Z,56.30
2022-12-15T11:21:11.365Z,50.60
2022-12-15T11:24:10.091Z,51.60
2022-12-15T11:27:24.922Z,44.60
2022-12-15T11:30:19.176Z,44.30
2022-12-15T11:32:57.080Z,42.20
2022-12-15T11:36:18.923Z,40.20
2022-12-15T11:39:43.032Z,37.30
2022-12-15T11:42:46.160Z,35.60
2022-12-15T11:45:48.833Z,36.30
2022-12-15T11:48:26.685Z,37.50
2022-12-15T11:51:13.433Z,38.00
2022-12-15T11:53:49.421Z,36.20
2022-12-15T11:56:43.064Z,38.90
2022-12-15T11:59:38.578Z,44.00
2022-12-15T12:02:39.846Z,40.50
2022-12-15T12:05:32.302Z,40.20
2022-12-15T12:08:15.159Z,38.70
2022-12-15T12:11:07.733Z,41.80
2022-12-15T12:14:08.047Z,38.60
2022-12-15T12:19:33.635Z,33.80
2022-12-15T12:22:14.124Z,30.60
2022-12-15T12:24:48.915Z,28.90
2022-12-15T12:27:53.156Z,28.40
2022-12-15T12:30:26.137Z,29.10
2022-12-15T12:33:04.316Z,28.50
2022-12-15T12:35:53.214Z,30.60
2022-12-15T12:38:36.637Z,31.40
2022-12-15T12:41:12.232Z,28.10
2022-12-15T12:43:51.602Z,30.10
2022-12-15T12:46:33.467Z,30.30
2022-12-15T12:49:44.004Z,29.10
2022-12-15T12:52:22.769Z,31.90
2022-12-15T12:55:35.529Z,28.80
2022-12-15T12:58:03.574Z,31.00
2022-12-15T13:00:32.606Z,30.70
2022-12-15T13:03:30.436Z,31.90
2022-12-15T13:05:58.606Z,30.00
2022-12-15T13:08:50.998Z,30.40
2022-12-15T13:11:47.258Z,31.70
2022-12-15T13:14:26.409Z,28.90
2022-12-15T13:17:24.905Z,29.80
2022-12-15T13:20:01.409Z,29.30
2022-12-15T13:22:41.441Z,29.90
2022-12-15T13:25:40.633Z,30.80
2022-12-15T13:28:30.491Z,29.50
2022-12-15T13:31:20.196Z,29.00
2022-12-15T13:33:51.497Z,30.20
2022-12-15T13:36:40.537Z,28.90
2022-12-15T13:39:17.410Z,29.70
2022-12-15T13:44:51.957Z,27.10
2022-12-15T13:47:26.350Z,31.50
2022-12-15T13:50:18.378Z,29.90
2022-12-15T13:53:17.766Z,29.60
2022-12-15T13:55:51.672Z,29.90
2022-12-15T13:58:20.605Z,29.30
2022-12-15T14:00:57.302Z,28.00
2022-12-15T14:03:25.869Z,29.50
2022-12-15T14:05:59.488Z,27.70
2022-12-15T14:08:29.860Z,30.10
2022-12-15T14:11:06.930Z,29.40
2022-12-15T14:13:46.922Z,28.40
2022-12-15T14:16:22.198Z,31.70
2022-12-15T14:19:19.374Z,30.10
2022-12-15T14:21:58.945Z,29.40
2022-12-15T14:24:41.134Z,29.00
2022-12-15T14:27:09.270Z,30.50
2022-12-15T14:29:37.082Z,30.60
2022-12-15T14:32:05.598Z,29.30
2022-12-15T14:34:37.179Z,30.60
2022-12-15T14:37:10.843Z,30.10
2022-12-15T14:39:46.235Z,30.20
2022-12-15T14:42:21.732Z,29.90
2022-12-15T14:44:51.323Z,30.70
2022-12-15T14:47:34.932Z,31.70
2022-12-15T14:50:04.600Z,29.30
2022-12-15T14:52:44.043Z,29.30
2022-12-15T14:55:21.117Z,29.50
2022-12-15T14:57:52.532Z,31.30
2022-12-15T15:00:25.747Z,30.20
2022-12-15T15:03:04.067Z,66.60
2022-12-15T15:03:19.782Z,29.70
2022-12-15T15:05:54.204Z,28.70
2022-12-15T15:08:35.701Z,29.10
2022-12-15T15:11:30.511Z,30.30
2022-12-15T15:14:10.796Z,27.60
2022-12-15T15:16:38.634Z,30.20
2022-12-15T15:19:06.959Z,29.30
2022-12-15T15:21:39.094Z,30.60
2022-12-15T15:24:10.795Z,32.30
2022-12-15T15:26:40.100Z,29.50
2022-12-15T15:29:35.991Z,31.90
2022-12-15T15:32:18.896Z,28.70
2022-12-15T15:37:23.462Z,31.40
2022-12-15T15:39:55.238Z,30.10
2022-12-15T15:42:26.526Z,31.30
2022-12-15T15:44:58.556Z,29.90
2022-12-15T15:47:27.191Z,35.30
2022-12-15T15:49:58.536Z,36.60
2022-12-15T15:52:28.673Z,48.60
2022-12-15T15:54:56.647Z,33.90
2022-12-15T15:57:24.597Z,35.10
2022-12-15T15:59:53.159Z,34.70
2022-12-15T16:02:21.146Z,33.70
2022-12-15T16:04:49.191Z,33.30
2022-12-15T16:07:24.751Z,32.60
2022-12-15T16:09:53.805Z,34.70
2022-12-15T16:12:45.269Z,37.50
2022-12-15T16:15:20.124Z,36.20
2022-12-15T16:17:48.132Z,40.50
2022-12-15T16:20:18.434Z,39.20
2022-12-15T16:22:51.281Z,37.70
2022-12-15T16:28:24.950Z,41.40
2022-12-15T16:30:53.035Z,42.20
2022-12-15T16:33:21.420Z,42.30
2022-12-15T16:35:50.542Z,39.00
2022-12-15T16:38:32.164Z,38.00
2022-12-15T16:41:08.255Z,33.60
2022-12-15T16:43:39.179Z,34.60
2022-12-15T16:46:14.694Z,35.10
2022-12-15T16:48:43.369Z,36.40
2022-12-15T16:51:35.221Z,36.20
2022-12-15T16:54:03.234Z,36.80
2022-12-15T16:56:31.161Z,37.70
2022-12-15T16:59:30.999Z,38.00
2022-12-15T17:01:47.734Z,38.60
2022-12-15T17:04:16.726Z,39.20
2022-12-15T17:06:44.927Z,37.50
2022-12-15T17:09:22.436Z,41.80
2022-12-15T17:11:51.955Z,42.00
2022-12-15T17:14:19.741Z,37.60
2022-12-15T17:16:47.678Z,39.90
2022-12-15T17:19:20.888Z,40.60
2022-12-15T17:21:53.235Z,52.00
2022-12-15T17:24:24.480Z,68.00
2022-12-15T17:26:55.976Z,85.60
2022-12-15T17:29:26.981Z,82.80
2022-12-15T17:31:54.868Z,72.00
2022-12-15T17:34:31.003Z,89.00
2022-12-15T17:37:02.252Z,81.10
2022-12-15T17:39:33.915Z,78.30
2022-12-15T17:42:02.929Z,80.60
2022-12-15T17:44:37.509Z,84.50
2022-12-15T17:47:08.714Z,102.40
2022-12-15T17:49:38.360Z,109.00
2022-12-15T17:52:30.296Z,101.80
2022-12-15T17:54:58.607Z,92.80
2022-12-15T17:57:26.779Z,98.30
2022-12-15T17:59:54.688Z,93.50
2022-12-15T18:02:22.757Z,97.40
2022-12-15T18:04:50.896Z,112.60
2022-12-15T18:07:22.209Z,133.80
2022-12-15T18:09:51.443Z,128.20
2022-12-15T18:12:25.554Z,124.40
2022-12-15T18:14:54.847Z,119.60
2022-12-15T18:17:23.814Z,124.70
2022-12-15T18:19:51.630Z,123.80
2022-12-15T18:22:24.152Z,135.30
2022-12-15T18:24:53.812Z,143.90
2022-12-15T18:27:29.386Z,144.00
2022-12-15T18:29:57.206Z,142.50
2022-12-15T18:32:27.076Z,130.40
2022-12-15T18:34:55.327Z,139.40
2022-12-15T18:37:28.210Z,170.20
2022-12-15T18:39:59.522Z,139.10
2022-12-15T18:42:32.026Z,126.60
2022-12-15T18:45:00.627Z,114.20
2022-12-15T18:47:28.502Z,107.20
2022-12-15T18:49:56.351Z,116.70
2022-12-15T18:52:27.592Z,114.00
2022-12-15T18:54:57.878Z,131.10
2022-12-15T18:57:35.888Z,133.80
2022-12-15T19:00:24.501Z,149.30
2022-12-15T19:02:54.399Z,235.40
2022-12-15T19:05:43.928Z,225.90
2022-12-15T19:08:20.238Z,152.30
2022-12-15T19:10:59.983Z,165.50
2022-12-15T19:13:36.289Z,230.90
2022-12-15T19:16:07.120Z,276.10
2022-12-15T19:18:53.365Z,228.70
2022-12-15T19:21:47.594Z,218.40
2022-12-15T19:24:59.942Z,204.60
2022-12-15T19:27:27.816Z,208.70
2022-12-15T19:29:55.863Z,209.50
2022-12-15T19:32:24.142Z,201.90
2022-12-15T19:34:52.211Z,170.80
2022-12-15T19:37:26.757Z,185.00
2022-12-15T19:39:56.463Z,196.40
2022-12-15T19:42:31.176Z,191.20
2022-12-15T19:45:01.522Z,198.80
2022-12-15T19:47:29.948Z,189.30
2022-12-15T19:49:57.751Z,184.90
2022-12-15T19:52:26.576Z,184.60
2022-12-15T19:54:54.558Z,186.50
2022-12-15T19:57:22.461Z,294.40
2022-12-15T19:59:50.286Z,410.10
2022-12-15T20:02:20.454Z,362.60
2022-12-15T20:04:48.785Z,351.30
2022-12-15T20:07:29.757Z,325.10
2022-12-15T20:09:58.218Z,330.80
2022-12-15T20:12:26.108Z,354.00
2022-12-15T20:14:53.871Z,333.40
2022-12-15T20:17:21.697Z,283.50
2022-12-15T20:19:49.451Z,303.30
2022-12-15T20:22:19.222Z,276.00
2022-12-15T20:24:47.424Z,314.90
2022-12-15T20:27:19.202Z,324.40
2022-12-15T20:29:47.116Z,326.40
2022-12-15T20:32:19.571Z,319.50
2022-12-15T20:34:47.902Z,279.60
2022-12-15T20:37:26.977Z,270.80
2022-12-15T20:39:57.616Z,297.30
2022-12-15T20:42:25.705Z,299.70
2022-12-15T20:44:54.070Z,305.30
2022-12-15T20:47:25.633Z,223.80
2022-12-15T20:49:55.037Z,249.80
2022-12-15T20:52:26.384Z,296.90
2022-12-15T20:54:54.916Z,271.40
2022-12-15T20:57:22.727Z,274.90
2022-12-15T20:59:50.635Z,245.80
2022-12-15T21:02:22.514Z,234.40
2022-12-15T21:04:51.353Z,246.40
2022-12-15T21:07:19.906Z,259.60
2022-12-15T21:09:47.820Z,286.70
2022-12-15T21:12:22.800Z,234.70
2022-12-15T21:14:51.103Z,222.90
2022-12-15T21:17:22.269Z,242.50
2022-12-15T21:19:50.213Z,255.50
2022-12-15T21:22:24.177Z,234.50
2022-12-15T21:24:54.740Z,186.50
2022-12-15T21:27:22.966Z,162.40
2022-12-15T21:29:52.844Z,148.80
2022-12-15T21:32:21.113Z,132.20
2022-12-15T21:34:49.912Z,130.80
2022-12-15T21:37:31.638Z,178.90
2022-12-15T21:39:59.632Z,181.80
2022-12-15T21:42:27.452Z,179.00
2022-12-15T21:44:55.276Z,171.70
2022-12-15T21:47:47.825Z,158.30
2022-12-15T21:50:17.494Z,177.30
2022-12-15T21:52:46.178Z,212.30
2022-12-15T21:55:27.080Z,255.60
2022-12-15T21:57:55.685Z,275.30
2022-12-15T22:00:25.237Z,238.60
2022-12-15T22:02:53.868Z,198.10
2022-12-15T22:05:30.263Z,165.40
2022-12-15T22:08:00.660Z,160.50
2022-12-15T22:10:28.540Z,175.10
2022-12-15T22:12:59.830Z,163.60
2022-12-15T22:15:28.677Z,163.00
2022-12-15T22:17:56.545Z,161.10
2022-12-15T22:20:25.191Z,149.10
2022-12-15T22:22:52.977Z,136.30
2022-12-15T22:25:25.873Z,136.60
2022-12-15T22:27:54.982Z,139.80
2022-12-15T22:30:26.961Z,142.00
2022-12-15T22:32:54.829Z,140.80
2022-12-15T22:35:26.004Z,140.90
2022-12-15T22:37:54.017Z,123.90
2022-12-15T22:40:23.881Z,113.00
2022-12-15T22:42:55.701Z,104.80
2022-12-15T22:45:24.206Z,104.50
2022-12-15T22:47:53.182Z,108.20
2022-12-15T22:50:25.950Z,105.70
2022-12-15T22:52:54.946Z,104.60
2022-12-15T22:55:24.306Z,105.80
2022-12-15T22:57:59.985Z,108.10
2022-12-15T23:00:27.803Z,119.50
2022-12-15T23:05:26.054Z,111.30
2022-12-15T23:07:54.197Z,107.90
2022-12-15T23:10:41.203Z,96.00
2022-12-15T23:13:08.943Z,131.50
2022-12-15T23:15:55.285Z,132.80
2022-12-15T23:18:23.135Z,121.70
2022-12-15T23:20:51.714Z,116.80
2022-12-15T23:23:19.988Z,122.60
2022-12-15T23:25:47.728Z,148.10
2022-12-15T23:28:15.543Z,160.30
2022-12-15T23:30:49.713Z,144.40
2022-12-15T23:33:18.493Z,158.60
2022-12-15T23:35:47.034Z,216.70
2022-12-15T23:38:14.934Z,198.70
2022-12-15T23:40:52.539Z,176.80
2022-12-15T23:43:22.473Z,138.60
2022-12-15T23:46:03.056Z,117.10
2022-12-15T23:48:37.995Z,111.50
2022-12-15T23:51:17.718Z,112.00
2022-12-15T23:53:47.693Z,112.50
2022-12-15T23:56:19.148Z,104.50
2022-12-15T23:58:49.486Z,114.10
